sensor_id;sensor_type;location;lat;lon;timestamp;temperature;humidity
51837;DHT22;38941;53.254;6.600;2023-03-24T00:00:31;11.50;99.90
51837;DHT22;38941;53.254;6.600;2023-03-24T00:02:32;11.60;99.90
51837;DHT22;38941;53.254;6.600;2023-03-24T00:04:36;11.60;99.90
51837;DHT22;38941;53.254;6.600;2023-03-24T00:06:42;11.60;99.90
51837;DHT22;38941;53.254;6.600;2023-03-24T00:08:44;11.60;99.90
51837;DHT22;38941;53.254;6.600;2023-03-24T00:10:47;11.60;99.90
51837;DHT22;38941;53.254;6.600;2023-03-24T00:12:49;11.60;99.90
51837;DHT22;38941;53.254;6.600;2023-03-24T00:14:50;11.60;99.90
51837;DHT22;38941;53.254;6.600;2023-03-24T00:16:53;11.50;99.90
51837;DHT22;38941;53.254;6.600;2023-03-24T00:18:57;11.50;99.90
51837;DHT22;38941;53.254;6.600;2023-03-24T00:20:58;11.50;99.90
51837;DHT22;38941;53.254;6.600;2023-03-24T00:23:01;11.50;99.90
51837;DHT22;38941;53.254;6.600;2023-03-24T00:25:01;11.60;99.90
51837;DHT22;38941;53.254;6.600;2023-03-24T00:27:03;11.40;99.90
51837;DHT22;38941;53.254;6.600;2023-03-24T00:29:08;11.40;99.90
51837;DHT22;38941;53.254;6.600;2023-03-24T00:31:11;11.40;99.90
51837;DHT22;38941;53.254;6.600;2023-03-24T00:33:14;11.60;99.90
51837;DHT22;38941;53.254;6.600;2023-03-24T00:35:15;11.40;99.90
51837;DHT22;38941;53.254;6.600;2023-03-24T00:37:17;11.50;99.90
51837;DHT22;38941;53.254;6.600;2023-03-24T00:39:18;11.40;99.90
51837;DHT22;38941;53.254;6.600;2023-03-24T00:41:19;11.40;99.90
51837;DHT22;38941;53.254;6.600;2023-03-24T00:43:20;11.40;99.90
51837;DHT22;38941;53.254;6.600;2023-03-24T00:45:21;11.60;99.90
51837;DHT22;38941;53.254;6.600;2023-03-24T00:47:24;11.40;99.90
51837;DHT22;38941;53.254;6.600;2023-03-24T00:49:28;11.50;99.90
51837;DHT22;38941;53.254;6.600;2023-03-24T00:51:47;11.50;99.90
51837;DHT22;38941;53.254;6.600;2023-03-24T00:53:48;11.30;99.90
51837;DHT22;38941;53.254;6.600;2023-03-24T00:55:51;11.40;99.90
51837;DHT22;38941;53.254;6.600;2023-03-24T00:57:51;11.30;99.90
51837;DHT22;38941;53.254;6.600;2023-03-24T00:59:54;11.30;99.90
51837;DHT22;38941;53.254;6.600;2023-03-24T01:01:56;11.30;99.90
51837;DHT22;38941;53.254;6.600;2023-03-24T01:03:57;11.40;99.90
51837;DHT22;38941;53.254;6.600;2023-03-24T01:06:00;11.60;99.90
51837;DHT22;38941;53.254;6.600;2023-03-24T01:08:02;11.50;99.90
51837;DHT22;38941;53.254;6.600;2023-03-24T01:10:04;11.40;99.90
51837;DHT22;38941;53.254;6.600;2023-03-24T01:12:05;11.50;99.90
51837;DHT22;38941;53.254;6.600;2023-03-24T01:14:06;11.30;99.90
51837;DHT22;38941;53.254;6.600;2023-03-24T01:16:08;11.30;99.90
51837;DHT22;38941;53.254;6.600;2023-03-24T01:18:09;11.40;99.90
51837;DHT22;38941;53.254;6.600;2023-03-24T01:20:12;11.40;99.90
51837;DHT22;38941;53.254;6.600;2023-03-24T01:22:14;11.30;99.90
51837;DHT22;38941;53.254;6.600;2023-03-24T01:24:16;11.30;99.90
51837;DHT22;38941;53.254;6.600;2023-03-24T01:26:17;11.50;99.90
51837;DHT22;38941;53.254;6.600;2023-03-24T01:28:20;11.30;99.90
51837;DHT22;38941;53.254;6.600;2023-03-24T01:30:25;11.30;99.90
51837;DHT22;38941;53.254;6.600;2023-03-24T01:32:28;11.50;99.90
51837;DHT22;38941;53.254;6.600;2023-03-24T01:34:28;11.50;99.90
51837;DHT22;38941;53.254;6.600;2023-03-24T01:36:29;11.30;99.90
51837;DHT22;38941;53.254;6.600;2023-03-24T01:38:30;11.30;99.90
51837;DHT22;38941;53.254;6.600;2023-03-24T01:40:32;11.20;99.90
51837;DHT22;38941;53.254;6.600;2023-03-24T01:42:33;11.40;99.90
51837;DHT22;38941;53.254;6.600;2023-03-24T01:44:36;11.30;99.90
51837;DHT22;38941;53.254;6.600;2023-03-24T01:46:37;11.30;99.90
51837;DHT22;38941;53.254;6.600;2023-03-24T01:51:00;11.60;99.90
51837;DHT22;38941;53.254;6.600;2023-03-24T01:53:03;11.40;99.90
51837;DHT22;38941;53.254;6.600;2023-03-24T01:55:13;11.40;99.90
51837;DHT22;38941;53.254;6.600;2023-03-24T01:57:25;11.30;99.90
51837;DHT22;38941;53.254;6.600;2023-03-24T01:59:31;11.40;99.90
51837;DHT22;38941;53.254;6.600;2023-03-24T02:01:34;11.50;99.90
51837;DHT22;38941;53.254;6.600;2023-03-24T02:03:35;11.40;99.90
51837;DHT22;38941;53.254;6.600;2023-03-24T02:05:38;11.30;99.90
51837;DHT22;38941;53.254;6.600;2023-03-24T02:08:07;11.30;99.90
51837;DHT22;38941;53.254;6.600;2023-03-24T02:10:12;11.50;99.90
51837;DHT22;38941;53.254;6.600;2023-03-24T02:12:13;11.40;99.90
51837;DHT22;38941;53.254;6.600;2023-03-24T02:14:15;11.40;99.90
51837;DHT22;38941;53.254;6.600;2023-03-24T02:16:33;11.30;99.90
51837;DHT22;38941;53.254;6.600;2023-03-24T02:24:05;11.30;99.90
51837;DHT22;38941;53.254;6.600;2023-03-24T02:40:17;11.30;99.90
51837;DHT22;38941;53.254;6.600;2023-03-24T02:49:47;11.50;99.90
51837;DHT22;38941;53.254;6.600;2023-03-24T02:52:20;11.40;99.90
51837;DHT22;38941;53.254;6.600;2023-03-24T02:54:50;11.30;99.90
51837;DHT22;38941;53.254;6.600;2023-03-24T02:57:19;11.30;99.90
51837;DHT22;38941;53.254;6.600;2023-03-24T02:59:48;11.40;99.90
51837;DHT22;38941;53.254;6.600;2023-03-24T03:02:14;11.40;99.90
51837;DHT22;38941;53.254;6.600;2023-03-24T03:04:20;11.40;99.90
51837;DHT22;38941;53.254;6.600;2023-03-24T03:06:33;11.40;99.90
51837;DHT22;38941;53.254;6.600;2023-03-24T03:08:37;11.50;99.90
51837;DHT22;38941;53.254;6.600;2023-03-24T03:10:41;11.40;99.90
51837;DHT22;38941;53.254;6.600;2023-03-24T03:12:44;11.50;99.90
51837;DHT22;38941;53.254;6.600;2023-03-24T03:14:51;11.50;99.90
51837;DHT22;38941;53.254;6.600;2023-03-24T03:17:01;11.50;99.90
51837;DHT22;38941;53.254;6.600;2023-03-24T03:19:21;11.50;99.90
51837;DHT22;38941;53.254;6.600;2023-03-24T03:21:24;11.40;99.90
51837;DHT22;38941;53.254;6.600;2023-03-24T03:23:34;11.50;99.90
51837;DHT22;38941;53.254;6.600;2023-03-24T03:25:39;11.70;99.90
51837;DHT22;38941;53.254;6.600;2023-03-24T03:27:43;12.10;99.90
51837;DHT22;38941;53.254;6.600;2023-03-24T03:29:52;11.40;99.90
51837;DHT22;38941;53.254;6.600;2023-03-24T03:32:02;11.70;99.90
51837;DHT22;38941;53.254;6.600;2023-03-24T03:36:33;11.60;99.90
51837;DHT22;38941;53.254;6.600;2023-03-24T03:38:46;11.60;99.90
51837;DHT22;38941;53.254;6.600;2023-03-24T03:40:51;11.60;99.90
51837;DHT22;38941;53.254;6.600;2023-03-24T03:42:53;10.60;99.90
51837;DHT22;38941;53.254;6.600;2023-03-24T03:50:58;11.40;99.90
51837;DHT22;38941;53.254;6.600;2023-03-24T03:52:59;11.20;99.90
51837;DHT22;38941;53.254;6.600;2023-03-24T03:55:03;11.20;99.90
51837;DHT22;38941;53.254;6.600;2023-03-24T03:59:05;11.60;99.90
51837;DHT22;38941;53.254;6.600;2023-03-24T04:01:06;11.20;99.90
51837;DHT22;38941;53.254;6.600;2023-03-24T04:10:17;10.90;99.90
51837;DHT22;38941;53.254;6.600;2023-03-24T04:12:26;11.00;99.90
51837;DHT22;38941;53.254;6.600;2023-03-24T04:14:45;11.20;99.90
51837;DHT22;38941;53.254;6.600;2023-03-24T04:17:58;10.70;99.90
51837;DHT22;38941;53.254;6.600;2023-03-24T04:22:26;11.00;99.90
51837;DHT22;38941;53.254;6.600;2023-03-24T04:25:47;10.60;99.90
51837;DHT22;38941;53.254;6.600;2023-03-24T04:29:45;10.60;99.90
51837;DHT22;38941;53.254;6.600;2023-03-24T04:32:02;10.70;99.90
51837;DHT22;38941;53.254;6.600;2023-03-24T04:34:20;10.60;99.90
51837;DHT22;38941;53.254;6.600;2023-03-24T04:36:44;10.40;99.90
51837;DHT22;38941;53.254;6.600;2023-03-24T04:38:51;10.50;99.90
51837;DHT22;38941;53.254;6.600;2023-03-24T04:40:57;10.30;99.90
51837;DHT22;38941;53.254;6.600;2023-03-24T04:43:00;10.50;99.90
51837;DHT22;38941;53.254;6.600;2023-03-24T04:45:05;10.40;99.90
51837;DHT22;38941;53.254;6.600;2023-03-24T04:47:07;8.20;99.90
51837;DHT22;38941;53.254;6.600;2023-03-24T04:49:10;10.30;99.90
51837;DHT22;38941;53.254;6.600;2023-03-24T04:51:11;10.30;99.90
51837;DHT22;38941;53.254;6.600;2023-03-24T04:53:12;10.00;99.90
51837;DHT22;38941;53.254;6.600;2023-03-24T04:55:33;10.00;99.90
51837;DHT22;38941;53.254;6.600;2023-03-24T04:57:37;10.10;99.90
51837;DHT22;38941;53.254;6.600;2023-03-24T04:59:39;10.10;99.90
51837;DHT22;38941;53.254;6.600;2023-03-24T05:01:40;10.30;99.90
51837;DHT22;38941;53.254;6.600;2023-03-24T05:03:49;9.80;99.90
51837;DHT22;38941;53.254;6.600;2023-03-24T05:05:52;10.00;99.90
51837;DHT22;38941;53.254;6.600;2023-03-24T05:07:53;10.70;99.90
51837;DHT22;38941;53.254;6.600;2023-03-24T05:09:56;10.10;99.90
51837;DHT22;38941;53.254;6.600;2023-03-24T05:11:57;9.70;99.90
51837;DHT22;38941;53.254;6.600;2023-03-24T05:13:57;9.60;99.90
51837;DHT22;38941;53.254;6.600;2023-03-24T05:16:00;9.60;99.90
51837;DHT22;38941;53.254;6.600;2023-03-24T05:18:01;10.00;99.90
51837;DHT22;38941;53.254;6.600;2023-03-24T05:20:02;9.50;99.90
51837;DHT22;38941;53.254;6.600;2023-03-24T05:22:06;9.10;99.90
51837;DHT22;38941;53.254;6.600;2023-03-24T05:24:07;9.70;99.90
51837;DHT22;38941;53.254;6.600;2023-03-24T05:26:08;9.50;99.90
51837;DHT22;38941;53.254;6.600;2023-03-24T05:28:08;9.70;99.90
51837;DHT22;38941;53.254;6.600;2023-03-24T05:30:10;9.70;99.90
51837;DHT22;38941;53.254;6.600;2023-03-24T06:00:30;9.50;99.90
51837;DHT22;38941;53.254;6.600;2023-03-24T06:10:39;10.00;99.90
51837;DHT22;38941;53.254;6.600;2023-03-24T06:12:40;9.90;99.90
51837;DHT22;38941;53.254;6.600;2023-03-24T06:14:42;10.30;99.90
51837;DHT22;38941;53.254;6.600;2023-03-24T06:16:44;9.70;99.90
51837;DHT22;38941;53.254;6.600;2023-03-24T06:18:45;9.90;99.90
51837;DHT22;38941;53.254;6.600;2023-03-24T06:20:52;9.70;99.90
51837;DHT22;38941;53.254;6.600;2023-03-24T06:22:56;9.80;99.90
51837;DHT22;38941;53.254;6.600;2023-03-24T06:24:58;9.70;99.90
51837;DHT22;38941;53.254;6.600;2023-03-24T06:26:59;9.70;99.90
51837;DHT22;38941;53.254;6.600;2023-03-24T06:29:01;9.90;99.90
51837;DHT22;38941;53.254;6.600;2023-03-24T06:31:04;10.00;99.90
51837;DHT22;38941;53.254;6.600;2023-03-24T06:33:05;10.00;99.90
51837;DHT22;38941;53.254;6.600;2023-03-24T06:35:06;10.60;99.90
51837;DHT22;38941;53.254;6.600;2023-03-24T06:37:07;10.20;99.90
51837;DHT22;38941;53.254;6.600;2023-03-24T06:39:09;10.40;99.90
51837;DHT22;38941;53.254;6.600;2023-03-24T06:41:10;10.30;99.90
51837;DHT22;38941;53.254;6.600;2023-03-24T06:43:11;10.00;99.90
51837;DHT22;38941;53.254;6.600;2023-03-24T06:45:12;10.20;99.90
51837;DHT22;38941;53.254;6.600;2023-03-24T06:47:12;10.00;99.90
51837;DHT22;38941;53.254;6.600;2023-03-24T06:49:13;9.80;99.90
51837;DHT22;38941;53.254;6.600;2023-03-24T06:51:14;10.00;99.90
51837;DHT22;38941;53.254;6.600;2023-03-24T06:53:16;10.00;99.90
51837;DHT22;38941;53.254;6.600;2023-03-24T06:55:16;10.00;99.90
51837;DHT22;38941;53.254;6.600;2023-03-24T06:57:17;10.00;99.90
51837;DHT22;38941;53.254;6.600;2023-03-24T06:59:22;10.20;99.90
51837;DHT22;38941;53.254;6.600;2023-03-24T07:01:24;10.30;99.90
51837;DHT22;38941;53.254;6.600;2023-03-24T07:03:24;10.00;99.90
51837;DHT22;38941;53.254;6.600;2023-03-24T07:05:28;10.00;99.90
51837;DHT22;38941;53.254;6.600;2023-03-24T07:07:28;9.70;99.90
51837;DHT22;38941;53.254;6.600;2023-03-24T07:09:29;10.70;99.90
51837;DHT22;38941;53.254;6.600;2023-03-24T07:11:31;9.80;99.90
51837;DHT22;38941;53.254;6.600;2023-03-24T07:13:32;10.00;99.90
51837;DHT22;38941;53.254;6.600;2023-03-24T07:15:34;9.90;99.90
51837;DHT22;38941;53.254;6.600;2023-03-24T07:17:35;9.80;99.90
51837;DHT22;38941;53.254;6.600;2023-03-24T07:19:35;10.00;99.90
51837;DHT22;38941;53.254;6.600;2023-03-24T07:21:36;9.80;99.90
51837;DHT22;38941;53.254;6.600;2023-03-24T07:23:37;10.00;99.90
51837;DHT22;38941;53.254;6.600;2023-03-24T07:25:40;10.10;99.90
51837;DHT22;38941;53.254;6.600;2023-03-24T07:27:41;9.90;99.90
51837;DHT22;38941;53.254;6.600;2023-03-24T07:29:42;10.00;99.90
51837;DHT22;38941;53.254;6.600;2023-03-24T07:31:44;10.00;99.90
51837;DHT22;38941;53.254;6.600;2023-03-24T07:33:45;10.00;99.90
51837;DHT22;38941;53.254;6.600;2023-03-24T07:35:45;9.60;99.90
51837;DHT22;38941;53.254;6.600;2023-03-24T07:37:46;9.90;99.90
51837;DHT22;38941;53.254;6.600;2023-03-24T07:39:48;9.90;99.90
51837;DHT22;38941;53.254;6.600;2023-03-24T07:41:49;10.00;99.90
51837;DHT22;38941;53.254;6.600;2023-03-24T07:43:49;9.90;99.90
51837;DHT22;38941;53.254;6.600;2023-03-24T07:45:50;10.10;99.90
51837;DHT22;38941;53.254;6.600;2023-03-24T07:47:52;10.10;99.90
51837;DHT22;38941;53.254;6.600;2023-03-24T07:49:53;10.00;99.90
51837;DHT22;38941;53.254;6.600;2023-03-24T07:51:54;11.00;99.90
51837;DHT22;38941;53.254;6.600;2023-03-24T07:53:55;10.20;99.90
51837;DHT22;38941;53.254;6.600;2023-03-24T07:55:57;10.30;99.90
51837;DHT22;38941;53.254;6.600;2023-03-24T07:57:59;10.20;99.90
51837;DHT22;38941;53.254;6.600;2023-03-24T08:00:07;10.30;99.90
51837;DHT22;38941;53.254;6.600;2023-03-24T08:02:18;10.10;99.90
51837;DHT22;38941;53.254;6.600;2023-03-24T08:04:19;10.30;99.90
51837;DHT22;38941;53.254;6.600;2023-03-24T08:06:21;10.20;99.90
51837;DHT22;38941;53.254;6.600;2023-03-24T08:08:22;10.30;99.90
51837;DHT22;38941;53.254;6.600;2023-03-24T08:10:29;10.50;99.90
51837;DHT22;38941;53.254;6.600;2023-03-24T08:12:30;10.30;99.90
51837;DHT22;38941;53.254;6.600;2023-03-24T08:14:31;10.90;99.90
51837;DHT22;38941;53.254;6.600;2023-03-24T08:16:32;10.50;99.90
51837;DHT22;38941;53.254;6.600;2023-03-24T08:18:33;10.40;99.90
51837;DHT22;38941;53.254;6.600;2023-03-24T08:20:34;8.90;99.90
51837;DHT22;38941;53.254;6.600;2023-03-24T08:22:37;10.60;99.90
51837;DHT22;38941;53.254;6.600;2023-03-24T08:24:38;10.70;99.90
51837;DHT22;38941;53.254;6.600;2023-03-24T08:26:39;10.60;99.90
51837;DHT22;38941;53.254;6.600;2023-03-24T08:28:42;11.20;99.90
51837;DHT22;38941;53.254;6.600;2023-03-24T08:30:45;11.30;99.90
51837;DHT22;38941;53.254;6.600;2023-03-24T08:32:49;11.10;99.90
51837;DHT22;38941;53.254;6.600;2023-03-24T08:34:52;11.40;99.90
51837;DHT22;38941;53.254;6.600;2023-03-24T08:36:54;11.10;99.90
51837;DHT22;38941;53.254;6.600;2023-03-24T08:38:55;11.20;99.90
51837;DHT22;38941;53.254;6.600;2023-03-24T08:41:01;11.10;99.90
51837;DHT22;38941;53.254;6.600;2023-03-24T08:43:08;11.40;99.90
51837;DHT22;38941;53.254;6.600;2023-03-24T08:45:10;11.90;99.90
51837;DHT22;38941;53.254;6.600;2023-03-24T08:47:12;11.70;99.90
51837;DHT22;38941;53.254;6.600;2023-03-24T08:49:12;11.70;99.90
51837;DHT22;38941;53.254;6.600;2023-03-24T08:51:15;11.60;99.90
51837;DHT22;38941;53.254;6.600;2023-03-24T08:53:16;11.60;99.90
51837;DHT22;38941;53.254;6.600;2023-03-24T08:55:17;11.90;99.90
51837;DHT22;38941;53.254;6.600;2023-03-24T08:57:19;12.30;99.90
51837;DHT22;38941;53.254;6.600;2023-03-24T08:59:21;12.50;99.90
51837;DHT22;38941;53.254;6.600;2023-03-24T09:01:23;12.30;99.90
51837;DHT22;38941;53.254;6.600;2023-03-24T09:03:24;12.20;99.90
51837;DHT22;38941;53.254;6.600;2023-03-24T09:05:26;12.50;99.90
51837;DHT22;38941;53.254;6.600;2023-03-24T09:07:26;13.20;99.90
51837;DHT22;38941;53.254;6.600;2023-03-24T09:09:29;13.20;99.90
51837;DHT22;38941;53.254;6.600;2023-03-24T09:11:30;12.60;99.90
51837;DHT22;38941;53.254;6.600;2023-03-24T09:13:31;12.30;99.90
51837;DHT22;38941;53.254;6.600;2023-03-24T09:15:32;12.30;99.90
51837;DHT22;38941;53.254;6.600;2023-03-24T09:17:34;12.30;99.90
51837;DHT22;38941;53.254;6.600;2023-03-24T09:19:36;13.10;99.90
51837;DHT22;38941;53.254;6.600;2023-03-24T09:21:37;13.40;99.90
51837;DHT22;38941;53.254;6.600;2023-03-24T09:23:39;13.50;99.90
51837;DHT22;38941;53.254;6.600;2023-03-24T09:25:40;13.50;99.90
51837;DHT22;38941;53.254;6.600;2023-03-24T09:27:41;13.30;99.90
51837;DHT22;38941;53.254;6.600;2023-03-24T09:29:44;13.60;99.90
51837;DHT22;38941;53.254;6.600;2023-03-24T09:31:45;13.10;99.90
51837;DHT22;38941;53.254;6.600;2023-03-24T09:33:46;13.20;99.90
51837;DHT22;38941;53.254;6.600;2023-03-24T09:35:53;12.90;99.90
51837;DHT22;38941;53.254;6.600;2023-03-24T09:37:54;12.60;99.90
51837;DHT22;38941;53.254;6.600;2023-03-24T09:46:13;13.50;99.90
51837;DHT22;38941;53.254;6.600;2023-03-24T09:48:39;13.60;99.90
51837;DHT22;38941;53.254;6.600;2023-03-24T09:51:01;14.20;99.90
51837;DHT22;38941;53.254;6.600;2023-03-24T09:55:43;13.10;99.90
51837;DHT22;38941;53.254;6.600;2023-03-24T10:03:50;13.70;99.90
51837;DHT22;38941;53.254;6.600;2023-03-24T10:05:59;14.00;99.90
51837;DHT22;38941;53.254;6.600;2023-03-24T10:08:20;14.60;99.90
51837;DHT22;38941;53.254;6.600;2023-03-24T10:10:54;14.40;99.90
51837;DHT22;38941;53.254;6.600;2023-03-24T10:22:31;14.30;99.90
51837;DHT22;38941;53.254;6.600;2023-03-24T10:24:50;14.50;99.90
51837;DHT22;38941;53.254;6.600;2023-03-24T10:26:59;14.30;99.90
51837;DHT22;38941;53.254;6.600;2023-03-24T10:29:26;14.10;99.90
51837;DHT22;38941;53.254;6.600;2023-03-24T10:31:31;13.50;99.90
51837;DHT22;38941;53.254;6.600;2023-03-24T10:33:38;14.00;99.90
51837;DHT22;38941;53.254;6.600;2023-03-24T10:36:01;13.90;99.90
51837;DHT22;38941;53.254;6.600;2023-03-24T10:38:17;14.10;99.90
51837;DHT22;38941;53.254;6.600;2023-03-24T10:40:25;14.50;99.90
51837;DHT22;38941;53.254;6.600;2023-03-24T10:42:32;14.50;99.90
51837;DHT22;38941;53.254;6.600;2023-03-24T10:44:33;14.60;99.90
51837;DHT22;38941;53.254;6.600;2023-03-24T10:46:35;14.90;99.90
51837;DHT22;38941;53.254;6.600;2023-03-24T10:48:46;14.60;99.90
51837;DHT22;38941;53.254;6.600;2023-03-24T10:50:47;14.00;99.90
51837;DHT22;38941;53.254;6.600;2023-03-24T10:52:48;14.20;99.90
51837;DHT22;38941;53.254;6.600;2023-03-24T10:54:56;13.80;99.90
51837;DHT22;38941;53.254;6.600;2023-03-24T10:58:59;14.10;99.90
51837;DHT22;38941;53.254;6.600;2023-03-24T11:01:01;14.50;99.90
51837;DHT22;38941;53.254;6.600;2023-03-24T11:03:10;14.60;99.90
51837;DHT22;38941;53.254;6.600;2023-03-24T11:05:20;14.50;99.90
51837;DHT22;38941;53.254;6.600;2023-03-24T11:07:31;14.70;99.90
51837;DHT22;38941;53.254;6.600;2023-03-24T11:09:43;15.20;99.90
51837;DHT22;38941;53.254;6.600;2023-03-24T11:11:45;15.20;99.90
51837;DHT22;38941;53.254;6.600;2023-03-24T11:13:54;15.00;99.90
51837;DHT22;38941;53.254;6.600;2023-03-24T11:16:15;15.60;99.90
51837;DHT22;38941;53.254;6.600;2023-03-24T11:18:16;15.40;98.80
51837;DHT22;38941;53.254;6.600;2023-03-24T11:20:26;14.80;99.90
51837;DHT22;38941;53.254;6.600;2023-03-24T11:22:29;14.50;99.90
51837;DHT22;38941;53.254;6.600;2023-03-24T11:24:35;14.80;99.90
51837;DHT22;38941;53.254;6.600;2023-03-24T11:26:38;14.10;99.90
51837;DHT22;38941;53.254;6.600;2023-03-24T11:28:46;14.70;99.90
51837;DHT22;38941;53.254;6.600;2023-03-24T11:30:49;14.20;99.90
51837;DHT22;38941;53.254;6.600;2023-03-24T11:32:52;14.40;99.90
51837;DHT22;38941;53.254;6.600;2023-03-24T11:35:15;14.30;99.50
51837;DHT22;38941;53.254;6.600;2023-03-24T11:37:21;15.90;99.90
51837;DHT22;38941;53.254;6.600;2023-03-24T11:41:25;15.60;99.90
51837;DHT22;38941;53.254;6.600;2023-03-24T11:43:28;17.00;99.90
51837;DHT22;38941;53.254;6.600;2023-03-24T11:45:42;16.20;99.90
51837;DHT22;38941;53.254;6.600;2023-03-24T11:47:44;16.40;97.40
51837;DHT22;38941;53.254;6.600;2023-03-24T11:52:01;16.50;95.50
51837;DHT22;38941;53.254;6.600;2023-03-24T11:54:14;15.30;96.90
51837;DHT22;38941;53.254;6.600;2023-03-24T11:56:26;16.20;95.10
51837;DHT22;38941;53.254;6.600;2023-03-24T11:58:49;16.10;94.30
51837;DHT22;38941;53.254;6.600;2023-03-24T12:55:25;16.50;91.10
51837;DHT22;38941;53.254;6.600;2023-03-24T12:57:33;16.10;92.30
51837;DHT22;38941;53.254;6.600;2023-03-24T12:59:54;16.10;92.40
51837;DHT22;38941;53.254;6.600;2023-03-24T13:02:19;16.00;92.40
51837;DHT22;38941;53.254;6.600;2023-03-24T13:04:28;15.90;92.50
51837;DHT22;38941;53.254;6.600;2023-03-24T13:06:35;15.90;93.10
51837;DHT22;38941;53.254;6.600;2023-03-24T13:08:37;15.80;92.80
51837;DHT22;38941;53.254;6.600;2023-03-24T13:10:41;15.80;93.40
51837;DHT22;38941;53.254;6.600;2023-03-24T13:12:58;15.90;93.80
51837;DHT22;38941;53.254;6.600;2023-03-24T13:15:21;16.00;92.80
51837;DHT22;38941;53.254;6.600;2023-03-24T13:17:33;15.90;92.30
51837;DHT22;38941;53.254;6.600;2023-03-24T13:19:39;15.00;92.50
51837;DHT22;38941;53.254;6.600;2023-03-24T13:21:40;16.30;93.20
51837;DHT22;38941;53.254;6.600;2023-03-24T13:28:20;16.60;89.20
51837;DHT22;38941;53.254;6.600;2023-03-24T13:30:27;16.80;88.20
51837;DHT22;38941;53.254;6.600;2023-03-24T13:32:40;16.80;81.60
51837;DHT22;38941;53.254;6.600;2023-03-24T13:36:52;16.70;78.90
51837;DHT22;38941;53.254;6.600;2023-03-24T13:38:58;16.60;79.40
51837;DHT22;38941;53.254;6.600;2023-03-24T13:41:06;16.90;80.90
51837;DHT22;38941;53.254;6.600;2023-03-24T13:43:12;17.00;81.30
51837;DHT22;38941;53.254;6.600;2023-03-24T13:47:23;17.50;78.90
51837;DHT22;38941;53.254;6.600;2023-03-24T13:49:25;17.90;79.40
51837;DHT22;38941;53.254;6.600;2023-03-24T13:51:29;18.00;75.80
51837;DHT22;38941;53.254;6.600;2023-03-24T13:53:45;18.10;71.00
51837;DHT22;38941;53.254;6.600;2023-03-24T13:55:50;17.90;70.40
51837;DHT22;38941;53.254;6.600;2023-03-24T13:58:22;17.70;72.40
51837;DHT22;38941;53.254;6.600;2023-03-24T14:00:25;17.80;68.80
51837;DHT22;38941;53.254;6.600;2023-03-24T14:09:39;17.20;70.90
51837;DHT22;38941;53.254;6.600;2023-03-24T14:16:40;16.80;74.40
51837;DHT22;38941;53.254;6.600;2023-03-24T14:18:42;17.10;74.70
51837;DHT22;38941;53.254;6.600;2023-03-24T14:20:58;17.40;76.60
51837;DHT22;38941;53.254;6.600;2023-03-24T14:23:02;16.90;74.20
51837;DHT22;38941;53.254;6.600;2023-03-24T14:27:37;17.70;74.90
51837;DHT22;38941;53.254;6.600;2023-03-24T14:29:53;17.50;76.10
51837;DHT22;38941;53.254;6.600;2023-03-24T14:32:01;17.10;76.60
51837;DHT22;38941;53.254;6.600;2023-03-24T14:34:11;16.70;77.80
51837;DHT22;38941;53.254;6.600;2023-03-24T14:36:27;16.50;79.60
51837;DHT22;38941;53.254;6.600;2023-03-24T14:38:38;16.30;80.20
51837;DHT22;38941;53.254;6.600;2023-03-24T14:40:45;16.10;81.80
51837;DHT22;38941;53.254;6.600;2023-03-24T14:44:55;16.20;82.60
51837;DHT22;38941;53.254;6.600;2023-03-24T14:46:57;16.10;83.10
51837;DHT22;38941;53.254;6.600;2023-03-24T14:49:09;15.90;84.40
51837;DHT22;38941;53.254;6.600;2023-03-24T14:51:27;16.00;85.50
51837;DHT22;38941;53.254;6.600;2023-03-24T14:53:29;16.10;86.00
51837;DHT22;38941;53.254;6.600;2023-03-24T14:55:30;15.70;85.70
51837;DHT22;38941;53.254;6.600;2023-03-24T14:57:34;16.30;86.20
51837;DHT22;38941;53.254;6.600;2023-03-24T14:59:48;16.20;85.50
51837;DHT22;38941;53.254;6.600;2023-03-24T15:01:50;16.00;85.90
51837;DHT22;38941;53.254;6.600;2023-03-24T15:04:10;16.00;86.70
51837;DHT22;38941;53.254;6.600;2023-03-24T15:06:13;16.00;86.80
51837;DHT22;38941;53.254;6.600;2023-03-24T15:08:22;15.90;87.50
51837;DHT22;38941;53.254;6.600;2023-03-24T15:10:23;15.70;87.10
51837;DHT22;38941;53.254;6.600;2023-03-24T15:12:24;15.50;88.50
51837;DHT22;38941;53.254;6.600;2023-03-24T15:14:25;15.40;89.40
51837;DHT22;38941;53.254;6.600;2023-03-24T15:16:34;15.40;89.80
51837;DHT22;38941;53.254;6.600;2023-03-24T15:18:55;15.20;89.80
51837;DHT22;38941;53.254;6.600;2023-03-24T15:20:59;15.20;90.40
51837;DHT22;38941;53.254;6.600;2023-03-24T15:23:07;15.10;90.30
51837;DHT22;38941;53.254;6.600;2023-03-24T15:25:08;15.00;90.70
51837;DHT22;38941;53.254;6.600;2023-03-24T15:27:22;15.00;90.70
51837;DHT22;38941;53.254;6.600;2023-03-24T15:29:24;15.50;90.40
51837;DHT22;38941;53.254;6.600;2023-03-24T15:31:27;15.80;89.30
51837;DHT22;38941;53.254;6.600;2023-03-24T15:33:38;15.70;88.60
51837;DHT22;38941;53.254;6.600;2023-03-24T15:35:39;15.40;89.00
51837;DHT22;38941;53.254;6.600;2023-03-24T15:37:41;15.20;89.50
51837;DHT22;38941;53.254;6.600;2023-03-24T15:39:53;15.50;90.10
51837;DHT22;38941;53.254;6.600;2023-03-24T15:41:54;15.40;87.60
51837;DHT22;38941;53.254;6.600;2023-03-24T15:43:55;16.60;85.80
51837;DHT22;38941;53.254;6.600;2023-03-24T15:45:57;17.10;84.80
51837;DHT22;38941;53.254;6.600;2023-03-24T15:48:10;17.50;80.90
51837;DHT22;38941;53.254;6.600;2023-03-24T15:53:19;17.40;76.80
51837;DHT22;38941;53.254;6.600;2023-03-24T15:55:29;17.80;76.30
51837;DHT22;38941;53.254;6.600;2023-03-24T15:57:38;17.60;79.00
51837;DHT22;38941;53.254;6.600;2023-03-24T16:00:13;17.40;78.60
51837;DHT22;38941;53.254;6.600;2023-03-24T16:02:23;17.40;79.20
51837;DHT22;38941;53.254;6.600;2023-03-24T16:04:28;17.30;80.10
51837;DHT22;38941;53.254;6.600;2023-03-24T16:06:34;17.20;80.40
51837;DHT22;38941;53.254;6.600;2023-03-24T16:08:36;17.00;80.50
51837;DHT22;38941;53.254;6.600;2023-03-24T16:10:41;17.20;81.80
51837;DHT22;38941;53.254;6.600;2023-03-24T16:12:42;17.40;81.20
51837;DHT22;38941;53.254;6.600;2023-03-24T16:14:43;17.60;81.40
51837;DHT22;38941;53.254;6.600;2023-03-24T16:16:44;17.70;81.00
51837;DHT22;38941;53.254;6.600;2023-03-24T16:18:46;17.70;80.30
51837;DHT22;38941;53.254;6.600;2023-03-24T16:20:48;17.70;80.60
51837;DHT22;38941;53.254;6.600;2023-03-24T16:22:51;17.70;80.50
51837;DHT22;38941;53.254;6.600;2023-03-24T16:24:51;17.80;80.10
51837;DHT22;38941;53.254;6.600;2023-03-24T16:26:52;17.60;79.90
51837;DHT22;38941;53.254;6.600;2023-03-24T16:28:54;17.70;80.20
51837;DHT22;38941;53.254;6.600;2023-03-24T16:31:01;17.40;80.00
51837;DHT22;38941;53.254;6.600;2023-03-24T16:33:03;17.20;79.80
51837;DHT22;38941;53.254;6.600;2023-03-24T16:35:05;17.10;79.80
51837;DHT22;38941;53.254;6.600;2023-03-24T16:37:08;17.20;80.50